createdAt,value
2022-08-21T00:04:55.946Z,95784.00
2022-08-21T00:10:26.758Z,95775.00
2022-08-21T00:15:55.416Z,95776.00
2022-08-21T00:21:23.460Z,95775.00
2022-08-21T00:26:52.320Z,95775.00
2022-08-21T00:32:27.147Z,95775.00
2022-08-21T00:37:54.968Z,95781.00
2022-08-21T00:43:30.641Z,95779.00
2022-08-21T00:48:59.280Z,95774.00
2022-08-21T00:54:31.302Z,95780.00
2022-08-21T01:00:05.429Z,95770.00
2022-08-21T01:05:34.232Z,95763.00
2022-08-21T01:11:03.264Z,95760.00
2022-08-21T01:16:32.017Z,95752.00
2022-08-21T01:22:00.772Z,95749.00
2022-08-21T01:27:28.909Z,95750.00
2022-08-21T01:32:57.748Z,95748.00
2022-08-21T01:38:26.483Z,95753.00
2022-08-21T01:43:55.762Z,95754.00
2022-08-21T01:49:24.184Z,95756.00
2022-08-21T01:54:55.466Z,95748.00
2022-08-21T02:00:23.977Z,95741.00
2022-08-21T02:05:52.275Z,95738.00
2022-08-21T02:11:20.887Z,95737.00
2022-08-21T02:16:49.125Z,95725.00
2022-08-21T02:22:17.487Z,95728.00
2022-08-21T02:27:48.655Z,95729.00
2022-08-21T02:33:17.505Z,95728.00
2022-08-21T02:38:45.879Z,95725.00
2022-08-21T02:44:14.097Z,95726.00
2022-08-21T02:49:41.803Z,95722.00
2022-08-21T02:55:09.779Z,95725.00
2022-08-21T03:00:38.907Z,95728.00
2022-08-21T03:06:09.238Z,95730.00
2022-08-21T03:11:37.209Z,95726.00
2022-08-21T03:17:05.763Z,95731.00
2022-08-21T03:22:33.560Z,95735.00
2022-08-21T03:28:03.621Z,95726.00
2022-08-21T03:33:33.930Z,95724.00
2022-08-21T03:39:02.212Z,95730.00
2022-08-21T03:44:31.304Z,95727.00
2022-08-21T03:50:00.503Z,95735.00
2022-08-21T03:55:29.426Z,95740.00
2022-08-21T04:01:01.101Z,95741.00
2022-08-21T04:06:29.289Z,95732.00
2022-08-21T04:11:57.950Z,95745.00
2022-08-21T04:17:26.210Z,95741.00
2022-08-21T04:22:54.686Z,95758.00
2022-08-21T04:28:28.783Z,95751.00
2022-08-21T04:33:57.933Z,95764.00
2022-08-21T04:39:29.711Z,95771.00
2022-08-21T04:44:58.598Z,95780.00
2022-08-21T04:50:42.848Z,95774.00
2022-08-21T04:56:38.051Z,95764.00
2022-08-21T05:02:08.349Z,95775.00
2022-08-21T05:07:42.725Z,95770.00
2022-08-21T05:13:12.230Z,95768.00
2022-08-21T05:18:39.991Z,95770.00
2022-08-21T05:24:08.583Z,95775.00
2022-08-21T05:29:36.389Z,95777.00
2022-08-21T05:35:08.916Z,95778.00
2022-08-21T05:40:37.797Z,95780.00
2022-08-21T05:46:07.695Z,95793.00
2022-08-21T05:51:38.900Z,95793.00
2022-08-21T05:57:06.781Z,95793.00
2022-08-21T06:02:35.175Z,95798.00
2022-08-21T06:08:03.206Z,95792.00
2022-08-21T06:13:31.614Z,95802.00
2022-08-21T06:19:02.845Z,95798.00
2022-08-21T06:24:34.339Z,95801.00
2022-08-21T06:30:03.187Z,95797.00
2022-08-21T06:35:31.322Z,95800.00
2022-08-21T06:40:59.577Z,95798.00
2022-08-21T06:46:31.169Z,95797.00
2022-08-21T06:51:59.414Z,95793.00
2022-08-21T06:57:27.720Z,95787.00
2022-08-21T07:02:55.641Z,95784.00
2022-08-21T07:08:24.116Z,95782.00
2022-08-21T07:13:53.780Z,95783.00
2022-08-21T07:19:21.677Z,95777.00
2022-08-21T07:24:49.582Z,95776.00
2022-08-21T07:30:17.512Z,95778.00
2022-08-21T07:35:45.632Z,95779.00
2022-08-21T07:41:27.329Z,95780.00
2022-08-21T07:46:55.119Z,95783.00
2022-08-21T07:52:23.022Z,95775.00
2022-08-21T07:57:51.356Z,95770.00
2022-08-21T08:03:22.554Z,95764.00
2022-08-21T08:08:57.096Z,95758.00
2022-08-21T08:14:31.481Z,95762.00
2022-08-21T08:20:03.587Z,95754.00
2022-08-21T08:25:36.904Z,95764.00
2022-08-21T08:31:05.908Z,95757.00
2022-08-21T08:36:37.679Z,95748.00
2022-08-21T08:42:40.518Z,95757.00
2022-08-21T08:48:14.860Z,95751.00
2022-08-21T08:53:54.714Z,95753.00
2022-08-21T08:59:28.928Z,95751.00
2022-08-21T09:05:00.366Z,95749.00
2022-08-21T09:11:04.291Z,95749.00
2022-08-21T09:17:00.566Z,95754.00
2022-08-21T09:22:40.570Z,95749.00
2022-08-21T09:28:15.332Z,95742.00
2022-08-21T09:33:43.260Z,95748.00
2022-08-21T09:39:14.340Z,95748.00
2022-08-21T09:44:45.119Z,95753.00
2022-08-21T09:50:18.831Z,95742.00
2022-08-21T09:56:23.350Z,95735.00
2022-08-21T10:01:54.917Z,95728.00
2022-08-21T10:07:25.888Z,95728.00
2022-08-21T10:13:26.427Z,95735.00
2022-08-21T10:19:32.231Z,95736.00
2022-08-21T10:25:22.652Z,95735.00
2022-08-21T10:31:59.110Z,95727.00
2022-08-21T10:38:09.185Z,95724.00
2022-08-21T10:44:08.357Z,95735.00
2022-08-21T10:49:46.537Z,95726.00
2022-08-21T10:55:22.995Z,95727.00
2022-08-21T11:00:58.000Z,95714.00
2022-08-21T11:06:33.209Z,95715.00
2022-08-21T11:12:27.298Z,95703.00
2022-08-21T11:18:31.042Z,95697.00
2022-08-21T11:24:35.036Z,95702.00
2022-08-21T11:30:05.603Z,95699.00
2022-08-21T11:35:37.210Z,95692.00
2022-08-21T11:41:20.163Z,95687.00
2022-08-21T11:47:29.156Z,95689.00
2022-08-21T11:53:36.966Z,95687.00
2022-08-21T11:59:40.964Z,95679.00
2022-08-21T12:05:22.830Z,95678.00
2022-08-21T12:11:11.495Z,95665.00
2022-08-21T12:16:43.870Z,95658.00
2022-08-21T12:22:14.954Z,95663.00
2022-08-21T12:27:52.518Z,95661.00
2022-08-21T12:33:25.859Z,95667.00
2022-08-21T12:39:07.123Z,95658.00
2022-08-21T12:44:45.297Z,95652.00
2022-08-21T12:50:23.039Z,95637.00
2022-08-21T12:55:50.933Z,95647.00
2022-08-21T13:01:37.056Z,95641.00
2022-08-21T13:07:22.779Z,95643.00
2022-08-21T13:12:51.149Z,95626.00
2022-08-21T13:18:32.901Z,95626.00
2022-08-21T13:24:41.446Z,95636.00
2022-08-21T13:30:21.783Z,95630.00
2022-08-21T13:36:27.157Z,95625.00
2022-08-21T13:42:02.268Z,95612.00
2022-08-21T13:47:33.716Z,95610.00
2022-08-21T13:53:09.344Z,95607.00
2022-08-21T13:58:48.100Z,95603.00
2022-08-21T14:04:28.700Z,95603.00
2022-08-21T14:09:57.030Z,95600.00
2022-08-21T14:15:34.427Z,95597.00
2022-08-21T14:21:08.407Z,95594.00
2022-08-21T14:26:51.816Z,95606.00
2022-08-21T14:32:32.910Z,95573.00
2022-08-21T14:38:03.944Z,95550.00
2022-08-21T14:43:32.834Z,95548.00
2022-08-21T14:49:00.667Z,95534.00
2022-08-21T14:54:32.410Z,95593.00
2022-08-21T15:00:02.047Z,95594.00
2022-08-21T15:05:33.724Z,95588.00
2022-08-21T15:11:13.590Z,95597.00
2022-08-21T15:16:43.244Z,95590.00
2022-08-21T15:22:15.372Z,95589.00
2022-08-21T15:27:46.727Z,95592.00
2022-08-21T15:33:15.510Z,95592.00
2022-08-21T15:38:44.965Z,95588.00
2022-08-21T15:44:14.503Z,95577.00
2022-08-21T15:49:46.023Z,95581.00
2022-08-21T15:55:13.995Z,95570.00
2022-08-21T16:00:44.914Z,95576.00
2022-08-21T16:06:14.968Z,95575.00
2022-08-21T16:11:44.471Z,95571.00
2022-08-21T16:17:12.703Z,95573.00
2022-08-21T16:22:44.906Z,95576.00
2022-08-21T16:28:18.516Z,95572.00
2022-08-21T16:33:53.480Z,95571.00
2022-08-21T16:39:25.155Z,95561.00
2022-08-21T16:44:55.669Z,95554.00
2022-08-21T16:50:25.848Z,95551.00
2022-08-21T16:55:54.728Z,95562.00
2022-08-21T17:01:28.390Z,95558.00
2022-08-21T17:06:56.250Z,95555.00
2022-08-21T17:12:24.426Z,95556.00
2022-08-21T17:17:52.855Z,95559.00
2022-08-21T17:23:21.760Z,95562.00
2022-08-21T17:28:54.210Z,95562.00
2022-08-21T17:34:23.247Z,95569.00
2022-08-21T17:39:57.752Z,95565.00
2022-08-21T17:45:26.254Z,95559.00
2022-08-21T17:50:54.453Z,95566.00
2022-08-21T17:56:31.921Z,95556.00
2022-08-21T18:02:01.813Z,95570.00
2022-08-21T18:07:32.643Z,95569.00
2022-08-21T18:13:06.548Z,95571.00
2022-08-21T18:18:42.945Z,95575.00
2022-08-21T18:24:10.926Z,95582.00
2022-08-21T18:29:43.891Z,95586.00
2022-08-21T18:35:17.089Z,95592.00
2022-08-21T18:40:55.129Z,95601.00
2022-08-21T18:46:24.097Z,95601.00
2022-08-21T18:51:52.045Z,95603.00
2022-08-21T19:08:56.849Z,95605.00
2022-08-21T19:14:24.984Z,95605.00
2022-08-21T19:20:01.933Z,95610.00
2022-08-21T19:25:33.667Z,95613.00
2022-08-21T19:31:32.580Z,95613.00
2022-08-21T19:37:01.112Z,95614.00
2022-08-21T19:42:31.042Z,95616.00
2022-08-21T19:47:59.014Z,95616.00
2022-08-21T19:53:26.897Z,95614.00
2022-08-21T19:58:58.585Z,95608.00
2022-08-21T20:10:14.849Z,95606.00
2022-08-21T20:15:46.630Z,95600.00
2022-08-21T20:21:15.075Z,95606.00
2022-08-21T20:26:49.244Z,95603.00
2022-08-21T20:32:18.204Z,95603.00
2022-08-21T20:37:46.534Z,95595.00
2022-08-21T20:43:28.725Z,95600.00
2022-08-21T20:48:57.912Z,95599.00
2022-08-21T20:54:45.728Z,95596.00
2022-08-21T21:00:17.202Z,95599.00
2022-08-21T21:06:07.529Z,95595.00
2022-08-21T21:11:55.517Z,95593.00
2022-08-21T21:17:35.473Z,95597.00
2022-08-21T21:23:21.759Z,95594.00
2022-08-21T21:29:29.928Z,95590.00
2022-08-21T21:34:58.220Z,95600.00
2022-08-21T21:40:30.697Z,95598.00
2022-08-21T21:46:37.318Z,95596.00
2022-08-21T21:52:54.657Z,95599.00
2022-08-21T21:58:54.071Z,95592.00
2022-08-21T22:04:38.994Z,95600.00
2022-08-21T22:10:32.883Z,95599.00
2022-08-21T22:16:11.829Z,95600.00
2022-08-21T22:21:47.407Z,95597.00
2022-08-21T22:27:27.627Z,95585.00
2022-08-21T22:33:00.176Z,95592.00
2022-08-21T22:38:37.079Z,95600.00
2022-08-21T22:44:18.272Z,95604.00
2022-08-21T22:49:50.316Z,95586.00
2022-08-21T22:55:43.762Z,95596.00
2022-08-21T23:01:28.317Z,95594.00
2022-08-21T23:07:02.765Z,95592.00
2022-08-21T23:12:43.843Z,95588.00
2022-08-21T23:19:03.977Z,95583.00
2022-08-21T23:24:33.940Z,95577.00
2022-08-21T23:30:22.741Z,95569.00
2022-08-21T23:36:26.200Z,95570.00
2022-08-21T23:42:23.045Z,95575.00
2022-08-21T23:48:29.335Z,95573.00
2022-08-21T23:54:09.294Z,95576.00
2022-08-21T23:59:58.327Z,95574.00
